createdAt,value
2023-04-05T00:12:25.948Z,10.72
2023-04-05T00:27:25.781Z,10.18
2023-04-05T00:42:25.179Z,15.35
2023-04-05T00:57:25.399Z,14.34
2023-04-05T01:12:25.729Z,18.77
2023-04-05T01:42:25.734Z,11.13
2023-04-05T01:57:25.511Z,10.77
2023-04-05T02:12:25.342Z,10.63
2023-04-05T02:42:25.586Z,10.7
2023-04-05T02:57:30.179Z,10.53
2023-04-05T03:12:25.610Z,10.42
2023-04-05T03:27:25.677Z,10.38
2023-04-05T03:42:25.391Z,9.73
2023-04-05T03:57:25.892Z,10.06
2023-04-05T04:12:25.749Z,10.02
2023-04-05T04:27:26.053Z,12.82
2023-04-05T04:42:25.529Z,13.07
2023-04-05T04:57:25.516Z,12.35
2023-04-05T05:12:25.466Z,14.7
2023-04-05T05:27:26.029Z,18.7
2023-04-05T05:42:25.532Z,18.8
2023-04-05T05:57:25.761Z,12.85
2023-04-05T06:12:27.049Z,10.59
2023-04-05T06:27:25.752Z,8.77
2023-04-05T06:42:27.138Z,10.11
2023-04-05T06:57:25.828Z,7.59
2023-04-05T07:12:25.466Z,6.46
2023-04-05T07:27:26.536Z,5.25
2023-04-05T07:42:25.490Z,5.2
2023-04-05T07:57:25.528Z,5.93
2023-04-05T08:12:25.665Z,5.94
2023-04-05T08:27:25.620Z,5.55
2023-04-05T08:42:25.704Z,7.15
2023-04-05T08:57:25.888Z,7.97
2023-04-05T09:12:25.546Z,9.81
2023-04-05T09:27:25.882Z,10.45
2023-04-05T09:57:25.674Z,11.4
2023-04-05T10:12:25.197Z,11.46
2023-04-05T10:27:25.886Z,11.6
2023-04-05T10:42:25.407Z,11.33
2023-04-05T10:57:26.067Z,11.62
2023-04-05T11:12:25.437Z,11.24
2023-04-05T11:27:25.978Z,11.45
2023-04-05T11:57:25.555Z,10.38
2023-04-05T12:12:26.176Z,11.3
2023-04-05T12:27:25.822Z,11.38
2023-04-05T12:42:25.601Z,12.29
2023-04-05T12:57:26.053Z,12.43
2023-04-05T13:12:25.553Z,14.65
2023-04-05T13:27:26.075Z,21.69
2023-04-05T13:42:26.201Z,13.41
2023-04-05T13:57:26.019Z,13.01
2023-04-05T14:12:25.628Z,13.77
2023-04-05T14:27:25.260Z,13.41
2023-04-05T14:42:31.442Z,14.12
2023-04-05T14:57:25.755Z,14.46
2023-04-05T15:12:25.959Z,14.54
2023-04-05T15:27:25.674Z,15.54
2023-04-05T15:57:25.413Z,21.2
2023-04-05T16:12:25.855Z,16.57
2023-04-05T16:27:25.767Z,14.91
2023-04-05T16:42:25.862Z,16.63
2023-04-05T16:57:25.720Z,16.6
2023-04-05T17:12:30.997Z,22.46
2023-04-05T17:27:26.163Z,18.55
2023-04-05T17:42:25.734Z,15.76
2023-04-05T17:57:31.622Z,14.9
2023-04-05T18:27:25.872Z,13.21
2023-04-05T18:42:25.631Z,12.87
2023-04-05T18:57:25.417Z,14.07
2023-04-05T19:12:26.052Z,17.3
2023-04-05T19:27:25.836Z,14.91
2023-04-05T19:42:25.305Z,14.95
2023-04-05T19:57:25.334Z,12.64
2023-04-05T20:12:25.399Z,13.56
2023-04-05T20:27:25.617Z,14.13
2023-04-05T20:42:41.980Z,15.33
2023-04-05T21:12:27.353Z,22.76
2023-04-05T21:27:25.706Z,17.54
2023-04-05T21:42:26.104Z,19.93
2023-04-05T21:57:26.184Z,16.34
2023-04-05T22:12:25.345Z,15.54
2023-04-05T22:27:25.819Z,15.48
2023-04-05T22:42:25.936Z,16.26
2023-04-05T23:12:25.719Z,14.58
2023-04-05T23:27:25.473Z,14.09
2023-04-05T23:42:25.840Z,13.21
2023-04-05T23:57:25.678Z,13.3
